Hlavní strana
METAR-TAF:

METAR-TAF

Letiště :

Tokio-Haneda, Japonsko

Letiště Haneda

zeměpisná šířka: 35-33N, zeměpisná délka: 139-47E, výška: 5 m

Aktuální stav počasí

Zpráva byla vytvořena před 24 minutami, v 07:00 UTC
Východní vítr 6 kt
Teplota 8°C
Vlhkost vzduchu 71%
Tlak 1015 hPa
Viditelnost 10 km a více
Skoro jasno ve výšce 2000 ft

METAR: RJTT 200700Z 09006KT 9999 FEW020 08/03 Q1015 NOSIG RMK 1CU020 A3000

Čas: 16:24 (07:24 UTC)

Předpověď počasí

Zpráva byla vytvořena před 2 hodinami a 18 minutami, v 05:06 UTC
Předpověď platná od 20 v 06 UTC do 21 v 12 UTC
Východojihovýchodní vítr 6 kt
Viditelnost 10 km a více
Skoro jasno ve výšce 2000 ft
Oblačno až skoro zataženo ve výšce 5000 ft
Změna
od 20 v 09 UTC do 20 v 11 UTC
Severoseverozápadní vítr 12 kt
Změna
od 21 v 03 UTC do 21 v 06 UTC
Severovýchodní vítr 6 kt

TAF: RJTT 200506Z 2006/2112 12006KT 9999 FEW020 BKN050 BECMG 2009/2011 34012KT BECMG 2103/2106 04006KT

Stav a předpovědi počasí z více než 4 000 letišť (zprávy METAR a TAF).

Červené a žluté tečky na mapě představují dostupné meteorologické stanice.

Když kurzor umístíte na tečku, zobrazí se název stanice.

Pak kliknutím zobrazíte stav a předpověď počasí.

Chcete-li změnit mapu, kliknutím na zelené tlačítko se znaménkem +mapu přiblížíte, kliknutím na zelené tlačítko se znaménkem – mapu oddálíte a kliknutím na zelené šipky přejdete na sousední mapy.


METAR-TAF: